Time;durP1;ratioP1;P1;durP2;ratioP2;P2;SDS_P1;SDS_P2;PMS_P1;PMS_P2;Temp;Humidity;BMP_temperature;BMP_pressure;BME280_temperature;BME280_humidity;BME280_pressure;Samples;Min_cycle;Max_cycle;Signal;HPM_P1;HPM_P2
2021/04/08 00:01:17;;;;;;;;;38.50;32.50;;;;;;;;3724419;37;18490;-54
2021/04/08 00:03:44;;;;;;;;;36.75;30.50;;;;;;;;3724278;38;18484;-54
2021/04/08 00:06:09;;;;;;;;;35.50;30.00;;;;;;;;3724783;38;21668;-53
2021/04/08 00:08:35;;;;;;;;;38.00;33.75;;;;;;;;3724664;38;21646;-55
2021/04/08 00:11:01;;;;;;;;;34.25;30.25;;;;;;;;3724726;37;18466;-53
2021/04/08 00:13:27;;;;;;;;;42.25;32.75;;;;;;;;3724762;38;17475;-54
2021/04/08 00:15:52;;;;;;;;;35.25;32.25;;;;;;;;3724739;37;18436;-54
2021/04/08 00:18:18;;;;;;;;;36.00;32.75;;;;;;;;3724933;38;18473;-55
2021/04/08 00:20:44;;;;;;;;;33.00;31.50;;;;;;;;3724735;37;18515;-55
2021/04/08 00:23:10;;;;;;;;;34.50;28.00;;;;;;;;3724831;38;18508;-55
2021/04/08 00:25:39;;;;;;;;;31.75;29.50;;;;;;;;3724809;38;18458;-55
2021/04/08 00:28:05;;;;;;;;;32.50;25.75;;;;;;;;3724878;37;18450;-55
2021/04/08 00:30:31;;;;;;;;;35.25;30.50;;;;;;;;3724745;38;21602;-55
2021/04/08 00:32:57;;;;;;;;;33.75;30.75;;;;;;;;3724667;37;21604;-54
2021/04/08 00:35:23;;;;;;;;;31.25;28.25;;;;;;;;3724723;37;21610;-55
2021/04/08 00:37:49;;;;;;;;;40.50;33.25;;;;;;;;3724717;37;21613;-55
2021/04/08 00:40:20;;;;;;;;;36.25;27.25;;;;;;;;3724704;38;18411;-55
2021/04/08 00:42:46;;;;;;;;;33.25;30.25;;;;;;;;3724747;37;18434;-55
2021/04/08 00:45:12;;;;;;;;;39.25;32.75;;;;;;;;3724581;37;21600;-54
2021/04/08 00:47:38;;;;;;;;;34.75;31.00;;;;;;;;3724748;37;18420;-56
2021/04/08 00:50:04;;;;;;;;;32.00;24.00;;;;;;;;3724775;38;18397;-53
2021/04/08 00:52:30;;;;;;;;;33.75;31.25;;;;;;;;3724673;37;18417;-55
2021/04/08 00:54:56;;;;;;;;;42.25;33.50;;;;;;;;3724663;37;21602;-54
2021/04/08 00:57:22;;;;;;;;;36.75;30.50;;;;;;;;3724756;37;21570;-54
2021/04/08 00:59:51;;;;;;;;;33.00;29.25;;;;;;;;3724508;37;18407;-53
2021/04/08 01:02:17;;;;;;;;;36.75;33.00;;;;;;;;3724753;37;18386;-53
2021/04/08 01:04:42;;;;;;;;;40.25;35.75;;;;;;;;3724696;38;21566;-54
2021/04/08 01:07:09;;;;;;;;;44.25;39.75;;;;;;;;3724760;37;18389;-54
2021/04/08 01:09:39;;;;;;;;;21.00;21.00;;;;;;;;3724512;37;18409;-54
2021/04/08 01:12:06;;;;;;;;;36.75;33.00;;;;;;;;3724732;37;21528;-54
2021/04/08 01:14:32;;;;;;;;;58.25;47.50;;;;;;;;3724804;37;21542;-54
2021/04/08 01:17:14;;;;;;;;;59.50;46.00;;;;;;;;3724714;37;21540;-54
2021/04/08 01:20:00;;;;;;;;;49.25;40.50;;;;;;;;3724752;38;21511;-54
2021/04/08 01:22:48;;;;;;;;;43.75;35.75;;;;;;;;3724722;37;21533;-54
2021/04/08 01:25:33;;;;;;;;;43.25;34.75;;;;;;;;3724677;37;21524;-54
2021/04/08 01:28:10;;;;;;;;;19.00;18.00;;;;;;;;3724761;37;21577;-53
2021/04/08 01:31:02;;;;;;;;;33.25;31.50;;;;;;;;3724717;37;21475;-54
2021/04/08 01:33:32;;;;;;;;;31.75;31.75;;;;;;;;3724933;38;21510;-52
2021/04/08 01:36:02;;;;;;;;;37.75;30.25;;;;;;;;3724657;38;21607;-53
2021/04/08 01:38:32;;;;;;;;;32.25;30.25;;;;;;;;3724658;38;21503;-53
2021/04/08 01:40:59;;;;;;;;;30.75;30.75;;;;;;;;3724609;37;21514;-53
2021/04/08 01:43:26;;;;;;;;;39.00;32.50;;;;;;;;3724802;37;21495;-53
2021/04/08 01:45:53;;;;;;;;;40.00;35.00;;;;;;;;3724664;37;21525;-54
2021/04/08 01:48:19;;;;;;;;;35.50;31.25;;;;;;;;3724761;37;21483;-53
2021/04/08 01:50:46;;;;;;;;;41.00;36.75;;;;;;;;3724848;38;21490;-54
2021/04/08 01:53:15;;;;;;;;;40.25;35.00;;;;;;;;3724898;37;18335;-53
2021/04/08 01:55:41;;;;;;;;;38.25;34.00;;;;;;;;3724662;37;21507;-54
2021/04/08 01:58:08;;;;;;;;;53.75;41.75;;;;;;;;3724766;38;21486;-53
2021/04/08 02:00:34;;;;;;;;;41.50;35.75;;;;;;;;3724695;38;21503;-54
2021/04/08 02:03:01;;;;;;;;;37.25;33.75;;;;;;;;3724712;37;18308;-55
2021/04/08 02:05:27;;;;;;;;;41.00;30.25;;;;;;;;3724652;37;21470;-52
2021/04/08 02:07:54;;;;;;;;;29.50;26.00;;;;;;;;3724622;37;21459;-54
2021/04/08 02:10:20;;;;;;;;;34.50;33.00;;;;;;;;3724504;38;21468;-53
2021/04/08 02:12:47;;;;;;;;;41.00;34.00;;;;;;;;3724729;37;21448;-54
2021/04/08 02:15:14;;;;;;;;;27.75;26.00;;;;;;;;3724703;37;21479;-54
2021/04/08 02:17:40;;;;;;;;;34.25;29.75;;;;;;;;3724723;37;21438;-54
2021/04/08 02:20:08;;;;;;;;;41.75;33.25;;;;;;;;3724677;37;21450;-53
2021/04/08 02:22:35;;;;;;;;;26.75;22.50;;;;;;;;3724704;38;21518;-55
2021/04/08 02:25:01;;;;;;;;;41.25;34.75;;;;;;;;3724645;38;21420;-54
2021/04/08 02:27:27;;;;;;;;;30.75;25.75;;;;;;;;3724678;37;21446;-53
2021/04/08 02:29:54;;;;;;;;;35.50;31.00;;;;;;;;3724723;38;21437;-53
2021/04/08 02:32:20;;;;;;;;;27.00;23.00;;;;;;;;3724794;37;21436;-52
2021/04/08 02:34:46;;;;;;;;;24.00;23.50;;;;;;;;3724693;38;21441;-54
2021/04/08 02:37:13;;;;;;;;;26.00;25.00;;;;;;;;3724793;38;21429;-54
2021/04/08 02:39:39;;;;;;;;;32.75;31.00;;;;;;;;3724499;38;18283;-53
2021/04/08 02:42:06;;;;;;;;;35.00;25.50;;;;;;;;3724329;37;21432;-52
2021/04/08 02:44:37;;;;;;;;;29.50;27.00;;;;;;;;3724679;37;21401;-53
2021/04/08 02:47:04;;;;;;;;;19.50;19.00;;;;;;;;3724699;37;21424;-52
2021/04/08 02:49:29;;;;;;;;;31.00;27.25;;;;;;;;3724135;38;20997;-53
2021/04/08 02:51:58;;;;;;;;;28.75;24.00;;;;;;;;3724148;38;21712;-54
2021/04/08 02:54:35;;;;;;;;;24.25;22.25;;;;;;;;3724382;37;18264;-54
2021/04/08 02:57:02;;;;;;;;;29.00;24.50;;;;;;;;3724633;38;21383;-56
2021/04/08 02:59:37;;;;;;;;;25.75;22.75;;;;;;;;3724564;37;21381;-54
2021/04/08 03:02:07;;;;;;;;;37.00;33.25;;;;;;;;3724645;37;21395;-55
2021/04/08 03:04:35;;;;;;;;;33.25;30.25;;;;;;;;3724577;37;21397;-54
2021/04/08 03:07:01;;;;;;;;;28.50;26.00;;;;;;;;3724674;38;21407;-54
2021/04/08 03:09:34;;;;;;;;;25.50;22.00;;;;;;;;3724863;37;21381;-53
2021/04/08 03:12:04;;;;;;;;;25.50;20.75;;;;;;;;3724758;37;21369;-56
2021/04/08 03:14:32;;;;;;;;;30.00;25.00;;;;;;;;3724726;38;21383;-53
2021/04/08 03:16:59;;;;;;;;;24.25;20.50;;;;;;;;3724733;37;21361;-55
2021/04/08 03:19:27;;;;;;;;;25.50;23.25;;;;;;;;3724839;38;21348;-56
2021/04/08 03:21:53;;;;;;;;;22.50;21.25;;;;;;;;3724253;38;21418;-55
2021/04/08 03:24:21;;;;;;;;;20.25;18.00;;;;;;;;3724980;38;21374;-55
2021/04/08 03:26:48;;;;;;;;;26.75;24.50;;;;;;;;3724971;37;18182;-55
2021/04/08 03:29:14;;;;;;;;;19.25;17.75;;;;;;;;3724848;37;21371;-54
2021/04/08 03:31:41;;;;;;;;;22.75;22.25;;;;;;;;3724857;37;21329;-53
2021/04/08 03:34:08;;;;;;;;;22.75;18.75;;;;;;;;3724806;38;21347;-53
2021/04/08 03:36:34;;;;;;;;;28.25;27.00;;;;;;;;3724916;38;21344;-56
2021/04/08 03:39:01;;;;;;;;;25.00;22.25;;;;;;;;3724829;37;21346;-52
2021/04/08 03:41:27;;;;;;;;;28.00;24.75;;;;;;;;3724708;38;21329;-55
2021/04/08 03:43:53;;;;;;;;;27.25;23.00;;;;;;;;3724785;38;21342;-53
2021/04/08 03:46:20;;;;;;;;;26.00;21.75;;;;;;;;3724605;38;21328;-51
2021/04/08 03:48:47;;;;;;;;;26.75;24.00;;;;;;;;3724845;37;21321;-52
2021/04/08 03:51:13;;;;;;;;;26.50;25.75;;;;;;;;3724796;38;21337;-53
2021/04/08 03:53:39;;;;;;;;;37.50;31.75;;;;;;;;3724442;38;21313;-53
2021/04/08 03:56:07;;;;;;;;;29.25;24.50;;;;;;;;3724599;37;21310;-53
2021/04/08 03:58:33;;;;;;;;;37.00;31.75;;;;;;;;3724694;38;21324;-54
2021/04/08 04:01:00;;;;;;;;;45.25;39.50;;;;;;;;3724470;37;21296;-54
2021/04/08 04:03:26;;;;;;;;;67.00;51.50;;;;;;;;3724445;37;21314;-54
2021/04/08 04:05:52;;;;;;;;;78.75;58.25;;;;;;;;3724143;37;21285;-54
2021/04/08 04:08:18;;;;;;;;;76.75;60.25;;;;;;;;3724599;37;18167;-54
2021/04/08 04:10:45;;;;;;;;;73.25;56.00;;;;;;;;3724551;38;21290;-52
2021/04/08 04:13:11;;;;;;;;;94.00;71.25;;;;;;;;3724520;37;21295;-53
2021/04/08 04:15:38;;;;;;;;;37.50;34.75;;;;;;;;3724785;37;18144;-53
2021/04/08 04:18:08;;;;;;;;;42.25;36.50;;;;;;;;3724536;37;21278;-54
2021/04/08 04:20:37;;;;;;;;;39.25;32.75;;;;;;;;3724664;38;21298;-53
2021/04/08 04:23:03;;;;;;;;;39.25;34.75;;;;;;;;3724754;38;21280;-53
2021/04/08 04:25:29;;;;;;;;;45.75;38.75;;;;;;;;3724630;38;21286;-53
2021/04/08 04:27:55;;;;;;;;;41.50;40.25;;;;;;;;3724719;37;21347;-53
2021/04/08 04:30:21;;;;;;;;;66.25;53.25;;;;;;;;3724568;37;18099;-53
2021/04/08 04:32:47;;;;;;;;;74.50;61.50;;;;;;;;3724601;37;18129;-53
2021/04/08 04:35:13;;;;;;;;;84.00;65.00;;;;;;;;3724298;37;18108;-54
2021/04/08 04:37:38;;;;;;;;;68.25;54.25;;;;;;;;3724489;38;18123;-53
2021/04/08 04:40:05;;;;;;;;;70.75;56.25;;;;;;;;3724738;37;18098;-53
2021/04/08 04:42:30;;;;;;;;;90.50;66.75;;;;;;;;3724606;38;18105;-53
2021/04/08 04:44:56;;;;;;;;;76.75;60.50;;;;;;;;3724659;37;18087;-56
2021/04/08 04:47:22;;;;;;;;;77.25;57.50;;;;;;;;3724620;37;18108;-54
2021/04/08 04:49:48;;;;;;;;;18.75;11.75;;;;;;;;3724681;37;18097;-53
2021/04/08 04:52:14;;;;;;;;;69.50;48.75;;;;;;;;3724633;38;18113;-55
2021/04/08 04:54:39;;;;;;;;;70.25;55.25;;;;;;;;3724809;37;21256;-55
2021/04/08 04:57:06;;;;;;;;;70.75;52.50;;;;;;;;3724784;38;18064;-53
2021/04/08 04:59:31;;;;;;;;;83.75;61.00;;;;;;;;3724642;38;18055;-53
2021/04/08 05:01:57;;;;;;;;;79.50;62.75;;;;;;;;3724723;37;18099;-55
2021/04/08 05:04:23;;;;;;;;;72.25;58.00;;;;;;;;3724614;38;18065;-54
2021/04/08 05:06:49;;;;;;;;;92.50;72.25;;;;;;;;3724638;38;18053;-52
2021/04/08 05:09:20;;;;;;;;;84.75;66.00;;;;;;;;3724774;37;18044;-54
2021/04/08 05:11:46;;;;;;;;;89.00;66.25;;;;;;;;3724839;37;18066;-55
2021/04/08 05:14:11;;;;;;;;;81.50;61.75;;;;;;;;3724701;38;18065;-53
2021/04/08 05:16:37;;;;;;;;;53.25;43.00;;;;;;;;3724835;37;18044;-55
2021/04/08 05:19:03;;;;;;;;;30.00;27.75;;;;;;;;3724640;37;18056;-58
2021/04/08 05:21:29;;;;;;;;;31.50;26.00;;;;;;;;3724699;38;18065;-54
2021/04/08 05:23:55;;;;;;;;;26.25;25.00;;;;;;;;3724562;37;21202;-55
2021/04/08 05:26:20;;;;;;;;;24.25;22.75;;;;;;;;3724677;37;18040;-53
2021/04/08 05:28:46;;;;;;;;;34.25;32.25;;;;;;;;3723962;37;18046;-53
2021/04/08 05:31:12;;;;;;;;;32.25;30.00;;;;;;;;3724379;37;18044;-55
2021/04/08 05:33:38;;;;;;;;;26.75;24.75;;;;;;;;3724790;37;18027;-53
2021/04/08 05:36:04;;;;;;;;;24.50;22.00;;;;;;;;3724652;38;21090;-57
2021/04/08 05:38:30;;;;;;;;;25.50;25.00;;;;;;;;3724626;37;18021;-54
2021/04/08 05:40:56;;;;;;;;;23.00;22.00;;;;;;;;3724776;37;21112;-53
2021/04/08 05:43:21;;;;;;;;;20.00;18.75;;;;;;;;3724622;37;18029;-55
2021/04/08 05:45:49;;;;;;;;;19.00;16.75;;;;;;;;3724587;37;18006;-57
2021/04/08 05:48:14;;;;;;;;;19.50;17.75;;;;;;;;3724728;37;17993;-55
2021/04/08 05:50:40;;;;;;;;;23.00;20.50;;;;;;;;3724822;37;21075;-55
2021/04/08 05:53:06;;;;;;;;;23.50;20.50;;;;;;;;3724896;38;18002;-52
2021/04/08 05:55:32;;;;;;;;;23.50;20.75;;;;;;;;3724679;38;21049;-54
2021/04/08 05:57:59;;;;;;;;;18.75;16.75;;;;;;;;3724703;38;17980;-56
2021/04/08 06:00:29;;;;;;;;;19.75;16.75;;;;;;;;3725061;37;17986;-55
2021/04/08 06:02:55;;;;;;;;;12.75;11.50;;;;;;;;3724728;37;21117;-54
2021/04/08 06:05:21;;;;;;;;;22.50;18.75;;;;;;;;3724666;37;17996;-53
2021/04/08 06:07:48;;;;;;;;;19.00;18.25;;;;;;;;3724618;38;21050;-53
2021/04/08 06:10:14;;;;;;;;;19.25;18.25;;;;;;;;3724459;37;21030;-55
2021/04/08 06:12:41;;;;;;;;;20.00;19.00;;;;;;;;3724690;37;21022;-55
2021/04/08 06:15:07;;;;;;;;;20.00;19.00;;;;;;;;3724461;38;21020;-56
2021/04/08 06:17:33;;;;;;;;;14.50;11.75;;;;;;;;3724601;38;21015;-53
2021/04/08 06:19:58;;;;;;;;;21.75;19.50;;;;;;;;3724744;37;21050;-52
2021/04/08 06:22:24;;;;;;;;;23.25;21.50;;;;;;;;3724782;37;17956;-54
2021/04/08 06:24:50;;;;;;;;;26.00;19.50;;;;;;;;3724851;37;17968;-55
2021/04/08 06:27:16;;;;;;;;;26.75;21.25;;;;;;;;3724627;37;17974;-53
2021/04/08 06:29:41;;;;;;;;;24.25;22.00;;;;;;;;3724891;38;17955;-54
2021/04/08 06:32:13;;;;;;;;;23.75;19.00;;;;;;;;3724732;37;17952;-54
2021/04/08 06:34:38;;;;;;;;;23.50;20.25;;;;;;;;3724649;37;18273;-57
2021/04/08 06:37:04;;;;;;;;;17.25;13.50;;;;;;;;3724706;37;21012;-53
2021/04/08 06:39:33;;;;;;;;;18.75;16.00;;;;;;;;3724615;38;17968;-54
2021/04/08 06:41:59;;;;;;;;;18.50;16.50;;;;;;;;3724688;38;17917;-51
2021/04/08 06:44:27;;;;;;;;;23.00;20.00;;;;;;;;3724650;37;21022;-51
2021/04/08 06:47:07;;;;;;;;;22.25;21.75;;;;;;;;3724789;38;17925;-51
2021/04/08 06:49:42;;;;;;;;;18.00;17.50;;;;;;;;3724829;38;20979;-51
2021/04/08 06:52:08;;;;;;;;;22.25;20.00;;;;;;;;3724732;37;20972;-50
2021/04/08 06:54:34;;;;;;;;;24.50;21.75;;;;;;;;3724686;38;20987;-51
2021/04/08 06:57:01;;;;;;;;;27.25;23.25;;;;;;;;3724813;37;20960;-51
2021/04/08 06:59:27;;;;;;;;;20.00;18.50;;;;;;;;3724720;37;17922;-52
2021/04/08 07:01:53;;;;;;;;;21.25;17.50;;;;;;;;3724549;38;21052;-51
2021/04/08 07:04:19;;;;;;;;;21.75;19.00;;;;;;;;3724823;37;17975;-50
2021/04/08 07:06:44;;;;;;;;;11.00;9.00;;;;;;;;3724563;37;20942;-51
2021/04/08 07:09:11;;;;;;;;;19.50;15.75;;;;;;;;3724816;37;17906;-51
2021/04/08 07:11:38;;;;;;;;;16.25;13.00;;;;;;;;3724815;38;17895;-50
2021/04/08 07:14:05;;;;;;;;;15.25;13.00;;;;;;;;3724796;38;20963;-51
2021/04/08 07:16:31;;;;;;;;;13.50;10.50;;;;;;;;3724685;37;20903;-51
2021/04/08 07:18:58;;;;;;;;;10.25;9.00;;;;;;;;3724584;38;20900;-51
2021/04/08 07:21:30;;;;;;;;;8.00;7.25;;;;;;;;3724537;38;20795;-53
2021/04/08 07:24:25;;;;;;;;;11.00;11.00;;;;;;;;3724510;38;20741;-50
2021/04/08 07:26:52;;;;;;;;;15.00;14.25;;;;;;;;3724473;37;20892;-52
2021/04/08 07:29:53;;;;;;;;;13.25;11.50;;;;;;;;3724610;37;20881;-50
2021/04/08 07:32:26;;;;;;;;;14.00;10.50;;;;;;;;3724524;37;20982;-52
2021/04/08 07:34:53;;;;;;;;;16.75;13.00;;;;;;;;3724573;38;20859;-51
2021/04/08 07:37:23;;;;;;;;;15.50;14.00;;;;;;;;3724619;38;20894;-51
2021/04/08 07:39:49;;;;;;;;;11.00;11.00;;;;;;;;3724640;38;20420;-51
2021/04/08 07:42:17;;;;;;;;;13.00;12.00;;;;;;;;3724606;37;20896;-54
2021/04/08 07:44:50;;;;;;;;;15.50;10.75;;;;;;;;3724747;38;20878;-50
2021/04/08 07:47:20;;;;;;;;;13.75;12.00;;;;;;;;3724702;38;20864;-52
2021/04/08 07:49:47;;;;;;;;;12.00;9.25;;;;;;;;3724580;38;20857;-50
2021/04/08 07:52:20;;;;;;;;;13.75;11.25;;;;;;;;3724578;38;20860;-51
2021/04/08 07:55:08;;;;;;;;;8.50;7.50;;;;;;;;3724676;37;20910;-51
2021/04/08 07:57:54;;;;;;;;;8.50;8.00;;;;;;;;3724543;37;20823;-50
2021/04/08 08:00:21;;;;;;;;;9.50;8.50;;;;;;;;3724734;37;20790;-52
2021/04/08 08:02:47;;;;;;;;;15.00;11.50;;;;;;;;3724581;37;20793;-51
2021/04/08 08:05:26;;;;;;;;;12.25;10.00;;;;;;;;3724725;37;20815;-51
2021/04/08 08:07:52;;;;;;;;;8.25;8.00;;;;;;;;3724363;37;17836;-50
2021/04/08 08:10:19;;;;;;;;;8.00;7.75;;;;;;;;3724381;37;20752;-51
2021/04/08 08:12:46;;;;;;;;;10.00;7.00;;;;;;;;3724506;38;20745;-51
2021/04/08 08:15:13;;;;;;;;;13.00;8.50;;;;;;;;3724611;37;20817;-54
2021/04/08 08:17:39;;;;;;;;;7.00;7.00;;;;;;;;3724623;38;20815;-51
2021/04/08 08:20:06;;;;;;;;;7.00;6.75;;;;;;;;3724704;37;20739;-51
2021/04/08 08:22:35;;;;;;;;;8.50;7.75;;;;;;;;3724744;37;17807;-51
2021/04/08 08:25:01;;;;;;;;;11.75;10.00;;;;;;;;3724651;38;20791;-51
2021/04/08 08:27:37;;;;;;;;;9.00;6.75;;;;;;;;3724810;37;20810;-54
2021/04/08 08:30:02;;;;;;;;;8.25;7.50;;;;;;;;3724956;37;20774;-51
2021/04/08 08:32:28;;;;;;;;;5.00;5.00;;;;;;;;3724774;38;20715;-51
2021/04/08 08:34:54;;;;;;;;;8.00;8.00;;;;;;;;3724750;37;17805;-53
2021/04/08 08:37:20;;;;;;;;;9.00;9.00;;;;;;;;3725100;38;17784;-52
2021/04/08 08:39:47;;;;;;;;;8.00;8.00;;;;;;;;3724951;38;17792;-51
2021/04/08 08:42:14;;;;;;;;;9.50;9.00;;;;;;;;3724807;37;20687;-52
2021/04/08 08:44:42;;;;;;;;;6.50;5.00;;;;;;;;3724363;37;20704;-51
2021/04/08 08:47:33;;;;;;;;;8.00;6.75;;;;;;;;3724668;37;20670;-52
2021/04/08 08:50:12;;;;;;;;;8.00;8.00;;;;;;;;3724803;38;20688;-51
2021/04/08 08:52:40;;;;;;;;;7.25;7.00;;;;;;;;3725290;38;20684;-51
2021/04/08 08:55:07;;;;;;;;;6.50;4.00;;;;;;;;3724904;38;20696;-51
2021/04/08 08:57:34;;;;;;;;;7.25;7.00;;;;;;;;3724898;37;20671;-52
2021/04/08 09:00:00;;;;;;;;;6.00;5.50;;;;;;;;3724639;37;20693;-51
2021/04/08 09:02:27;;;;;;;;;9.00;7.00;;;;;;;;3724764;38;20471;-50
2021/04/08 09:04:53;;;;;;;;;9.75;8.75;;;;;;;;3724725;37;20673;-51
2021/04/08 09:07:20;;;;;;;;;6.00;6.00;;;;;;;;3724534;38;17724;-51
2021/04/08 09:09:49;;;;;;;;;1.50;1.50;;;;;;;;3724651;37;20685;-51
2021/04/08 09:12:19;;;;;;;;;8.75;8.00;;;;;;;;3724707;38;20650;-50
2021/04/08 09:14:46;;;;;;;;;11.00;8.50;;;;;;;;3724825;37;20659;-51
2021/04/08 09:17:13;;;;;;;;;8.75;8.50;;;;;;;;3724623;37;20716;-49
2021/04/08 09:19:39;;;;;;;;;9.00;8.25;;;;;;;;3724484;38;20649;-50
2021/04/08 09:22:06;;;;;;;;;6.25;5.00;;;;;;;;3724767;38;20627;-50
2021/04/08 09:24:52;;;;;;;;;9.00;8.00;;;;;;;;3724663;38;20658;-51
2021/04/08 09:27:21;;;;;;;;;9.75;8.00;;;;;;;;3724649;38;20624;-51
2021/04/08 09:29:51;;;;;;;;;6.50;6.25;;;;;;;;3724513;37;20714;-52
2021/04/08 09:32:33;;;;;;;;;10.75;9.25;;;;;;;;3724698;37;20620;-50
2021/04/08 09:35:24;;;;;;;;;7.25;6.00;;;;;;;;3724642;38;20754;-50
2021/04/08 09:38:13;;;;;;;;;4.75;4.75;;;;;;;;3724653;38;20656;-53
2021/04/08 09:40:49;;;;;;;;;10.50;7.25;;;;;;;;3724602;38;20652;-50
2021/04/08 09:43:21;;;;;;;;;8.50;7.25;;;;;;;;3724629;37;20640;-52
2021/04/08 09:45:57;;;;;;;;;7.00;6.50;;;;;;;;3724649;37;20597;-52
2021/04/08 09:48:24;;;;;;;;;6.75;6.75;;;;;;;;3724678;37;20614;-52
2021/04/08 09:50:57;;;;;;;;;7.75;7.75;;;;;;;;3724571;38;20640;-52
2021/04/08 09:53:27;;;;;;;;;9.75;7.50;;;;;;;;3724559;37;20635;-51
2021/04/08 09:55:59;;;;;;;;;8.50;7.50;;;;;;;;3724571;37;20598;-51
2021/04/08 09:58:29;;;;;;;;;14.00;13.00;;;;;;;;3724442;37;20690;-50
2021/04/08 10:00:56;;;;;;;;;15.75;15.25;;;;;;;;3724664;37;20673;-51
2021/04/08 10:03:34;;;;;;;;;13.50;12.75;;;;;;;;3724792;37;20730;-52
2021/04/08 10:06:01;;;;;;;;;11.00;9.25;;;;;;;;3724623;38;20711;-51
2021/04/08 10:08:35;;;;;;;;;18.25;18.25;;;;;;;;3724413;38;20655;-50
2021/04/08 10:11:00;;;;;;;;;12.25;11.00;;;;;;;;3724621;38;20706;-50
2021/04/08 10:13:36;;;;;;;;;14.50;12.00;;;;;;;;3728514;37;20697;-52
2021/04/08 10:16:11;;;;;;;;;11.25;10.00;;;;;;;;3724832;38;17671;-51
2021/04/08 10:18:37;;;;;;;;;7.75;6.50;;;;;;;;3724603;37;21690;-51
2021/04/08 10:21:04;;;;;;;;;6.00;6.00;;;;;;;;3724622;38;21555;-51
2021/04/08 10:23:37;;;;;;;;;6.00;6.00;;;;;;;;3724675;38;21603;-51
2021/04/08 10:26:05;;;;;;;;;6.75;6.50;;;;;;;;3724803;37;20607;-54
2021/04/08 10:28:38;;;;;;;;;6.00;6.00;;;;;;;;3724802;37;21589;-51
2021/04/08 10:31:20;;;;;;;;;5.00;5.00;;;;;;;;3724678;37;20613;-54
2021/04/08 10:33:56;;;;;;;;;6.00;5.50;;;;;;;;3724621;37;21599;-53
2021/04/08 10:36:35;;;;;;;;;6.25;6.25;;;;;;;;3724935;37;21574;-50
2021/04/08 10:39:05;;;;;;;;;6.75;6.00;;;;;;;;3724759;37;21594;-50
2021/04/08 10:41:30;;;;;;;;;8.75;8.00;;;;;;;;3725899;37;21569;-52
2021/04/08 10:43:56;;;;;;;;;7.50;6.50;;;;;;;;3724593;38;21590;-53
2021/04/08 10:46:22;;;;;;;;;6.50;6.00;;;;;;;;3724816;38;18627;-51
2021/04/08 10:48:48;;;;;;;;;8.25;7.25;;;;;;;;3724543;37;18621;-50
2021/04/08 10:51:14;;;;;;;;;9.25;9.00;;;;;;;;3724612;37;21571;-51
2021/04/08 10:53:45;;;;;;;;;8.00;5.25;;;;;;;;3724717;38;18592;-52
2021/04/08 10:56:11;;;;;;;;;6.00;5.75;;;;;;;;3724668;38;18600;-52
2021/04/08 10:58:36;;;;;;;;;5.00;5.00;;;;;;;;3724475;38;21556;-51
2021/04/08 11:01:03;;;;;;;;;6.00;6.00;;;;;;;;3724762;38;21608;-52
2021/04/08 11:03:29;;;;;;;;;5.75;5.50;;;;;;;;3724719;37;18592;-52
2021/04/08 11:05:58;;;;;;;;;8.25;7.00;;;;;;;;3724762;37;21611;-51
2021/04/08 11:08:24;;;;;;;;;6.50;6.00;;;;;;;;3724724;37;18576;-52
2021/04/08 11:10:49;;;;;;;;;6.50;5.50;;;;;;;;3724653;38;21577;-53
2021/04/08 11:13:15;;;;;;;;;6.25;6.00;;;;;;;;3724710;38;18576;-55
2021/04/08 11:15:44;;;;;;;;;9.00;7.00;;;;;;;;3724875;38;18593;-53
2021/04/08 11:18:14;;;;;;;;;8.00;8.00;;;;;;;;3724708;38;18581;-53
2021/04/08 11:20:44;;;;;;;;;7.00;6.75;;;;;;;;3724737;37;21491;-52
2021/04/08 11:23:11;;;;;;;;;4.75;4.00;;;;;;;;3724603;37;21503;-52
2021/04/08 11:25:38;;;;;;;;;6.25;6.00;;;;;;;;3724444;38;21550;-51
2021/04/08 11:28:06;;;;;;;;;5.00;4.75;;;;;;;;3724619;37;21505;-52
2021/04/08 11:30:38;;;;;;;;;7.00;6.00;;;;;;;;3724771;38;21562;-52
2021/04/08 11:33:05;;;;;;;;;4.00;3.25;;;;;;;;3724749;38;21505;-51
2021/04/08 11:35:32;;;;;;;;;6.25;5.00;;;;;;;;3724800;37;21519;-51
2021/04/08 11:38:05;;;;;;;;;5.25;4.25;;;;;;;;3724679;38;21483;-51
2021/04/08 11:40:30;;;;;;;;;10.00;9.75;;;;;;;;3724703;37;21520;-51
2021/04/08 11:42:56;;;;;;;;;5.00;4.00;;;;;;;;3723895;37;21562;-51
2021/04/08 11:45:30;;;;;;;;;4.75;4.50;;;;;;;;3724714;38;18546;-52
2021/04/08 11:48:05;;;;;;;;;5.00;5.00;;;;;;;;3724578;37;21560;-51
2021/04/08 11:50:48;;;;;;;;;4.00;4.00;;;;;;;;3724801;38;21482;-52
2021/04/08 11:53:16;;;;;;;;;5.25;5.00;;;;;;;;3724663;37;21501;-51
2021/04/08 11:55:52;;;;;;;;;4.50;4.50;;;;;;;;3724717;37;21492;-52
2021/04/08 11:58:27;;;;;;;;;4.25;4.00;;;;;;;;3724625;37;21470;-51
2021/04/08 12:01:05;;;;;;;;;7.50;6.25;;;;;;;;3724652;37;21482;-54
2021/04/08 12:03:34;;;;;;;;;6.00;5.00;;;;;;;;3724846;38;21443;-51
2021/04/08 12:06:08;;;;;;;;;9.75;8.25;;;;;;;;3724562;37;21466;-50
2021/04/08 12:08:40;;;;;;;;;5.75;5.00;;;;;;;;3724638;37;21466;-50
2021/04/08 12:11:13;;;;;;;;;6.50;5.25;;;;;;;;3724686;38;21463;-50
2021/04/08 12:13:41;;;;;;;;;5.00;3.00;;;;;;;;3724475;37;21455;-50
2021/04/08 12:16:20;;;;;;;;;11.00;8.75;;;;;;;;3724602;37;21442;-51
2021/04/08 12:18:46;;;;;;;;;20.00;14.25;;;;;;;;3724609;37;21483;-53
2021/04/08 12:21:12;;;;;;;;;7.00;6.50;;;;;;;;3724926;38;21689;-53
2021/04/08 12:23:38;;;;;;;;;17.50;15.00;;;;;;;;3724756;38;18463;-50
2021/04/08 12:26:05;;;;;;;;;5.00;5.00;;;;;;;;3724703;37;21603;-52
2021/04/08 12:28:30;;;;;;;;;31.00;26.50;;;;;;;;3724473;38;21427;-53
2021/04/08 12:30:57;;;;;;;;;9.25;8.75;;;;;;;;3724679;38;21542;-51
2021/04/08 12:33:25;;;;;;;;;5.00;4.00;;;;;;;;3724742;38;18450;-53
2021/04/08 12:35:51;;;;;;;;;5.75;5.00;;;;;;;;3724923;37;21089;-50
2021/04/08 12:38:17;;;;;;;;;6.25;4.50;;;;;;;;3724742;38;21415;-50
2021/04/08 12:40:43;;;;;;;;;17.00;15.50;;;;;;;;3724944;38;21483;-50
2021/04/08 12:43:10;;;;;;;;;12.50;10.00;;;;;;;;3724828;37;21502;-52
2021/04/08 12:45:36;;;;;;;;;12.75;12.25;;;;;;;;3724731;37;18444;-52
2021/04/08 12:48:01;;;;;;;;;6.25;6.00;;;;;;;;3724675;38;21434;-52
2021/04/08 12:50:27;;;;;;;;;8.50;8.50;;;;;;;;3724811;38;18440;-51
2021/04/08 12:52:53;;;;;;;;;4.25;4.00;;;;;;;;3724726;37;18450;-51
2021/04/08 12:55:20;;;;;;;;;10.75;9.25;;;;;;;;3724554;38;18430;-51
2021/04/08 12:57:46;;;;;;;;;10.25;9.75;;;;;;;;3724586;37;21450;-51
2021/04/08 13:00:12;;;;;;;;;4.00;3.50;;;;;;;;3724726;38;21478;-52
2021/04/08 13:02:37;;;;;;;;;6.00;5.00;;;;;;;;3724898;37;21374;-51
2021/04/08 13:05:04;;;;;;;;;7.50;7.00;;;;;;;;3724750;37;21381;-51
2021/04/08 13:07:30;;;;;;;;;5.00;4.00;;;;;;;;3724628;38;18426;-52
2021/04/08 13:09:56;;;;;;;;;5.00;5.00;;;;;;;;3724855;37;21374;-51
2021/04/08 13:12:22;;;;;;;;;6.50;5.50;;;;;;;;3724827;37;18426;-51
2021/04/08 13:14:48;;;;;;;;;5.00;5.00;;;;;;;;3725107;37;18389;-52
2021/04/08 13:17:13;;;;;;;;;4.25;4.25;;;;;;;;3725067;37;18417;-56
2021/04/08 13:19:41;;;;;;;;;3.75;3.00;;;;;;;;3724830;37;18397;-51
2021/04/08 13:22:07;;;;;;;;;4.00;3.00;;;;;;;;3724795;37;18393;-53
2021/04/08 13:24:33;;;;;;;;;5.75;4.75;;;;;;;;3724966;37;21364;-52
2021/04/08 13:27:00;;;;;;;;;4.25;4.25;;;;;;;;3724675;37;18407;-52
2021/04/08 13:29:26;;;;;;;;;3.00;3.00;;;;;;;;3724644;38;18386;-51
2021/04/08 13:31:51;;;;;;;;;7.25;6.75;;;;;;;;3724687;37;21359;-53
2021/04/08 13:34:17;;;;;;;;;6.75;6.00;;;;;;;;3724875;38;18398;-52
2021/04/08 13:36:43;;;;;;;;;8.00;7.25;;;;;;;;3724900;38;18390;-52
2021/04/08 13:39:08;;;;;;;;;5.50;5.50;;;;;;;;3724844;38;18372;-53
2021/04/08 13:41:35;;;;;;;;;7.75;7.00;;;;;;;;3724836;37;18369;-52
2021/04/08 13:44:01;;;;;;;;;13.75;12.50;;;;;;;;3724783;38;18363;-53
2021/04/08 13:46:27;;;;;;;;;16.00;14.75;;;;;;;;3725278;37;21382;-52
2021/04/08 13:48:55;;;;;;;;;9.75;7.75;;;;;;;;3724726;37;18365;-55
2021/04/08 13:51:20;;;;;;;;;6.00;5.50;;;;;;;;3724884;38;18362;-51
2021/04/08 13:53:46;;;;;;;;;7.00;6.50;;;;;;;;3724768;37;21262;-52
2021/04/08 13:56:13;;;;;;;;;6.75;6.00;;;;;;;;3724863;37;18341;-53
2021/04/08 13:58:39;;;;;;;;;11.00;10.50;;;;;;;;3724807;37;21266;-52
2021/04/08 14:01:05;;;;;;;;;10.75;8.00;;;;;;;;3724792;37;18362;-52
2021/04/08 14:03:31;;;;;;;;;6.00;5.00;;;;;;;;3724783;38;21324;-52
2021/04/08 14:05:57;;;;;;;;;7.50;6.75;;;;;;;;3724801;37;18321;-52
2021/04/08 14:08:22;;;;;;;;;5.00;4.00;;;;;;;;3724805;37;18339;-51
2021/04/08 14:10:48;;;;;;;;;5.75;5.75;;;;;;;;3724759;37;21510;-54
2021/04/08 14:13:14;;;;;;;;;9.25;6.50;;;;;;;;3724837;37;18314;-52
2021/04/08 14:15:42;;;;;;;;;6.75;5.00;;;;;;;;3724823;37;18340;-53
2021/04/08 14:18:08;;;;;;;;;7.25;5.25;;;;;;;;3724706;37;18325;-51
2021/04/08 14:20:34;;;;;;;;;9.50;7.75;;;;;;;;3724600;37;21217;-51
2021/04/08 14:23:01;;;;;;;;;6.50;6.00;;;;;;;;3724559;37;21549;-53
2021/04/08 14:25:27;;;;;;;;;5.25;5.00;;;;;;;;3724290;37;18299;-52
2021/04/08 15:13:26;;;;;;;;;26.75;22.75;;;;;;;;3724802;38;20825;-51
2021/04/08 15:15:51;;;;;;;;;7.00;6.50;;;;;;;;3724797;37;21303;-52
2021/04/08 15:18:17;;;;;;;;;3.00;3.00;;;;;;;;3724558;37;18249;-51